Time;durP1;ratioP1;P1;durP2;ratioP2;P2;SDS_P1;SDS_P2;PMS_P1;PMS_P2;Temp;Humidity;BMP_temperature;BMP_pressure;BME280_temperature;BME280_humidity;BME280_pressure;Samples;Min_cycle;Max_cycle;Signal;HPM_P1;HPM_P2
2022/06/03 00:01:07;;;;;;;2.72;2.53;;;12.70;99.90;;;;;;5022982;28;20083;-71
2022/06/03 00:04:11;;;;;;;2.92;2.58;;;12.60;99.90;;;;;;5022841;28;20096;-71
2022/06/03 00:06:56;;;;;;;2.60;2.40;;;12.60;99.90;;;;;;5023664;28;20079;-71
2022/06/03 00:09:52;;;;;;;2.03;1.92;;;12.60;99.90;;;;;;5023477;28;20041;-71
2022/06/03 00:12:43;;;;;;;2.15;1.67;;;12.50;99.90;;;;;;5022377;28;20814;-71
2022/06/03 00:15:34;;;;;;;2.67;2.47;;;12.60;99.90;;;;;;5014553;28;20103;-71
2022/06/03 00:18:36;;;;;;;3.75;2.60;;;12.50;99.90;;;;;;5023399;28;20053;-71
2022/06/03 00:21:07;;;;;;;;;;;12.50;99.90;;;;;;5021770;28;20049;-72
2022/06/03 00:24:09;;;;;;;3.08;2.70;;;12.50;99.90;;;;;;5022064;28;20376;-71
2022/06/03 00:27:16;;;;;;;2.58;2.38;;;12.40;99.90;;;;;;5023354;28;20049;-71
2022/06/03 00:30:18;;;;;;;2.60;1.80;;;12.40;99.90;;;;;;4948843;28;20117;-71
2022/06/03 00:33:06;;;;;;;5.80;2.00;;;12.30;99.90;;;;;;5014401;28;20049;-71
2022/06/03 00:35:49;;;;;;;6.72;2.83;;;12.30;99.90;;;;;;5020960;28;20053;-72
2022/06/03 00:38:29;;;;;;;4.97;2.03;;;12.30;99.90;;;;;;5022336;28;20107;-71
2022/06/03 00:41:00;;;;;;;2.67;2.47;;;12.30;99.90;;;;;;5023242;28;20064;-71
2022/06/03 00:44:01;;;;;;;2.60;2.40;;;12.30;99.90;;;;;;5022449;28;20045;-71
2022/06/03 00:46:57;;;;;;;2.80;2.60;;;12.20;99.90;;;;;;5021555;28;20095;-71
2022/06/03 00:49:50;;;;;;;5.10;3.17;;;12.20;99.90;;;;;;5008622;28;20103;-71
2022/06/03 00:52:35;;;;;;;3.65;2.22;;;12.20;99.90;;;;;;5022671;28;20046;-71
2022/06/03 00:55:23;;;;;;;2.20;2.05;;;12.20;99.90;;;;;;5022984;28;20507;-72
2022/06/03 00:58:08;;;;;;;4.53;2.47;;;12.10;99.90;;;;;;5022792;28;20091;-70
2022/06/03 01:00:55;;;;;;;2.15;1.83;;;12.10;99.90;;;;;;5020800;28;20056;-71
2022/06/03 01:04:02;;;;;;;2.83;2.35;;;12.10;99.90;;;;;;5021311;28;20480;-71
2022/06/03 01:06:54;;;;;;;4.15;2.70;;;12.10;99.90;;;;;;4978528;28;20081;-71
2022/06/03 01:09:52;;;;;;;7.40;2.25;;;12.00;99.90;;;;;;5016010;23;20660;-77
2022/06/03 01:13:05;;;;;;;10.23;2.70;;;12.00;99.90;;;;;;5002906;28;20542;-77
2022/06/03 01:15:49;;;;;;;3.22;2.95;;;12.00;99.90;;;;;;5001287;28;20171;-75
2022/06/03 01:18:27;;;;;;;3.95;2.85;;;11.90;99.90;;;;;;5002136;28;20050;-77
2022/06/03 01:21:37;;;;;;;3.85;2.65;;;11.90;99.90;;;;;;5001873;28;20447;-77
2022/06/03 01:24:20;;;;;;;2.83;2.63;;;11.90;99.90;;;;;;5001407;28;20050;-77
2022/06/03 01:27:19;;;;;;;4.50;2.08;;;11.90;99.90;;;;;;5002340;28;20046;-77
2022/06/03 01:30:11;;;;;;;3.65;3.35;;;11.90;99.90;;;;;;4985595;28;20050;-77
2022/06/03 01:32:46;;;;;;;3.33;3.03;;;11.80;99.90;;;;;;5001646;28;20396;-76
2022/06/03 01:35:49;;;;;;;3.40;2.55;;;11.80;99.90;;;;;;5001890;28;20149;-77
2022/06/03 01:38:55;;;;;;;2.58;2.38;;;11.80;99.90;;;;;;5001367;28;20057;-77
2022/06/03 01:41:35;;;;;;;4.57;2.40;;;11.80;99.90;;;;;;5002517;28;20058;-77
2022/06/03 01:44:35;;;;;;;3.25;2.95;;;11.80;99.90;;;;;;4987130;28;20076;-77
2022/06/03 01:47:43;;;;;;;3.90;2.60;;;11.80;99.90;;;;;;5001332;28;20123;-77
2022/06/03 01:50:33;;;;;;;3.55;2.67;;;11.80;99.90;;;;;;4999860;28;20045;-76
2022/06/03 01:53:39;;;;;;;2.65;2.42;;;11.80;99.90;;;;;;4983219;28;20046;-77
2022/06/03 01:56:26;;;;;;;4.55;3.63;;;11.80;99.90;;;;;;4970826;28;20049;-77
2022/06/03 01:59:00;;;;;;;3.33;2.67;;;11.80;99.90;;;;;;5002206;28;20037;-77
2022/06/03 02:02:00;;;;;;;4.18;2.70;;;11.70;99.90;;;;;;5001904;28;20384;-77
2022/06/03 02:04:39;;;;;;;2.40;2.20;;;11.70;99.90;;;;;;5001759;28;20518;-77
2022/06/03 02:07:08;;;;;;;7.10;2.50;;;11.70;99.90;;;;;;5002407;28;20050;-77
2022/06/03 02:09:52;;;;;;;3.45;3.15;;;11.70;99.90;;;;;;5000567;28;20073;-77
2022/06/03 02:12:39;;;;;;;3.60;3.05;;;11.70;99.90;;;;;;5001932;28;20077;-77
2022/06/03 02:15:18;;;;;;;6.40;2.85;;;11.70;99.90;;;;;;5001093;28;20049;-77
2022/06/03 02:18:12;;;;;;;2.65;2.47;;;11.60;99.90;;;;;;5001921;28;20038;-77
2022/06/03 02:21:15;;;;;;;3.50;3.22;;;11.60;99.90;;;;;;5001633;28;20120;-77
2022/06/03 02:24:24;;;;;;;4.03;3.13;;;11.60;99.90;;;;;;5001058;28;20046;-78
2022/06/03 02:27:02;;;;;;;3.28;2.50;;;11.60;99.90;;;;;;4983292;28;20058;-77
2022/06/03 02:33:23;;;;;;;3.85;2.97;;;11.50;99.90;;;;;;5005570;28;20131;-77
2022/06/03 02:36:16;;;;;;;3.65;3.33;;;11.50;99.90;;;;;;5003611;28;20038;-78
2022/06/03 02:39:10;;;;;;;4.75;3.50;;;11.50;99.90;;;;;;5005969;28;20522;-77
2022/06/03 02:41:58;;;;;;;4.18;3.13;;;11.50;99.90;;;;;;5004163;28;20563;-77
2022/06/03 02:44:49;;;;;;;4.63;3.10;;;11.40;99.90;;;;;;5005383;28;20046;-78
2022/06/03 02:47:23;;;;;;;3.78;2.67;;;11.40;99.90;;;;;;5003683;28;20060;-77
2022/06/03 02:49:52;;;;;;;4.90;3.78;;;11.40;99.90;;;;;;5004545;28;20034;-77
2022/06/03 02:52:35;;;;;;;4.63;3.03;;;11.40;99.90;;;;;;5005230;28;20049;-77
2022/06/03 02:55:42;;;;;;;4.68;3.28;;;11.40;99.90;;;;;;5003818;28;20054;-77
2022/06/03 02:58:31;;;;;;;9.15;3.67;;;11.40;99.90;;;;;;5005181;28;20617;-77
2022/06/03 03:01:24;;;;;;;9.48;2.88;;;11.30;99.90;;;;;;5004171;28;20480;-77
2022/06/03 03:03:56;;;;;;;3.47;2.60;;;11.30;99.90;;;;;;5003906;28;20100;-77
2022/06/03 03:06:48;;;;;;;4.45;3.35;;;11.30;99.90;;;;;;5004782;28;20049;-77
2022/06/03 03:09:38;;;;;;;4.35;3.10;;;11.30;99.90;;;;;;5003839;28;20057;-77
2022/06/03 03:12:16;;;;;;;4.82;3.20;;;11.20;99.90;;;;;;5003736;28;20062;-77
2022/06/03 03:15:09;;;;;;;4.22;2.83;;;11.20;99.90;;;;;;5003906;28;20129;-77
2022/06/03 03:17:47;;;;;;;3.20;2.83;;;11.20;99.90;;;;;;4986850;28;20057;-77
2022/06/03 03:20:39;;;;;;;3.88;3.25;;;11.20;99.90;;;;;;4988561;28;20064;-77
2022/06/03 03:23:44;;;;;;;7.25;3.35;;;11.20;99.90;;;;;;5003497;28;20104;-77
2022/06/03 03:26:28;;;;;;;4.32;3.90;;;11.20;99.90;;;;;;5004342;28;20072;-77
2022/06/03 03:29:12;;;;;;;3.72;3.30;;;11.20;99.90;;;;;;5003945;28;20472;-77
2022/06/03 03:32:06;;;;;;;2.80;2.60;;;11.10;99.90;;;;;;5004601;28;20089;-77
2022/06/03 03:34:50;;;;;;;9.05;3.97;;;11.20;99.90;;;;;;5002571;28;20099;-78
2022/06/03 03:37:24;;;;;;;3.17;2.88;;;11.40;99.90;;;;;;5004075;28;20770;-77
2022/06/03 03:40:10;;;;;;;4.35;3.70;;;11.10;99.90;;;;;;5004802;28;20050;-77
2022/06/03 03:43:24;;;;;;;3.38;3.08;;;11.20;99.90;;;;;;5002722;28;20103;-77
2022/06/03 03:46:26;;;;;;;5.38;4.30;;;11.10;99.90;;;;;;4964137;28;20109;-77
2022/06/03 03:49:29;;;;;;;4.20;3.30;;;11.10;99.90;;;;;;4986980;28;20077;-77
2022/06/03 03:52:12;;;;;;;5.57;4.40;;;11.20;99.90;;;;;;5002049;28;20781;-77
2022/06/03 03:54:40;;;;;;;;;;;11.10;99.90;;;;;;5004594;28;20041;-77
2022/06/03 03:57:29;;;;;;;8.25;3.33;;;11.20;99.90;;;;;;5004074;28;19926;-77
2022/06/03 04:00:17;;;;;;;4.15;3.75;;;11.10;99.90;;;;;;5003828;28;20096;-77
2022/06/03 04:03:14;;;;;;;4.05;3.58;;;11.10;99.90;;;;;;5004160;28;20152;-77
2022/06/03 04:06:01;;;;;;;8.77;4.15;;;11.10;99.90;;;;;;5001835;28;20045;-77
2022/06/03 04:08:33;;;;;;;4.68;3.40;;;11.10;99.90;;;;;;5003532;28;20062;-77
2022/06/03 04:11:29;;;;;;;5.38;3.97;;;11.00;99.90;;;;;;5002925;28;20053;-77
2022/06/03 04:14:26;;;;;;;4.45;4.05;;;11.20;99.90;;;;;;5003012;28;20058;-77
2022/06/03 04:17:31;;;;;;;5.93;3.85;;;11.10;99.90;;;;;;5003804;28;20046;-77
2022/06/03 04:20:20;;;;;;;3.60;3.30;;;11.20;99.90;;;;;;4997669;28;20115;-77
2022/06/03 04:22:50;;;;;;;5.35;4.90;;;11.10;99.90;;;;;;5002780;28;20046;-77
2022/06/03 04:25:37;;;;;;;3.42;3.03;;;11.20;99.90;;;;;;5002331;28;20060;-77
2022/06/03 04:28:05;;;;;;;10.10;4.53;;;11.20;99.90;;;;;;5002512;28;20042;-78
2022/06/03 04:30:43;;;;;;;5.38;4.28;;;11.20;99.90;;;;;;5003262;28;20553;-79
2022/06/03 04:33:30;;;;;;;3.97;3.60;;;11.20;99.90;;;;;;5002720;28;20436;-80
2022/06/03 04:36:14;;;;;;;13.02;4.43;;;11.20;99.90;;;;;;5003588;28;20081;-79
2022/06/03 04:39:14;;;;;;;4.88;3.42;;;11.20;99.90;;;;;;5003404;28;20109;-78
2022/06/03 04:42:13;;;;;;;2.72;2.53;;;11.30;99.90;;;;;;5003300;28;20057;-78
2022/06/03 04:45:06;;;;;;;4.15;3.75;;;11.30;99.90;;;;;;5003384;28;20107;-79
2022/06/03 04:48:02;;;;;;;4.90;3.58;;;11.40;99.90;;;;;;5003553;28;20112;-78
2022/06/03 04:50:28;;;;;;;4.68;4.28;;;11.40;99.90;;;;;;5000293;28;20219;-79
2022/06/03 04:53:18;;;;;;;5.72;4.75;;;11.40;99.90;;;;;;5003628;28;20137;-79
2022/06/03 04:56:21;;;;;;;3.97;3.58;;;11.40;99.90;;;;;;5003019;28;20563;-79
2022/06/03 04:59:29;;;;;;;4.38;3.97;;;11.40;99.90;;;;;;5002765;28;20046;-79
2022/06/03 05:02:15;;;;;;;6.15;4.32;;;11.50;99.90;;;;;;5003106;28;20068;-79
2022/06/03 05:05:06;;;;;;;7.35;4.32;;;11.60;99.90;;;;;;4957963;28;20145;-79
2022/06/03 05:07:50;;;;;;;7.60;4.63;;;11.60;99.90;;;;;;4980422;28;20061;-78
2022/06/03 05:10:34;;;;;;;5.63;3.15;;;11.60;99.90;;;;;;5003196;28;20451;-80
2022/06/03 05:13:30;;;;;;;4.78;4.30;;;11.70;99.90;;;;;;5003244;28;20046;-79
2022/06/03 05:16:08;;;;;;;4.15;3.85;;;11.70;99.90;;;;;;5002880;28;20070;-78
2022/06/03 05:18:51;;;;;;;4.13;3.33;;;11.70;99.90;;;;;;4982406;28;20500;-79
2022/06/03 05:21:51;;;;;;;7.05;3.72;;;11.80;99.90;;;;;;4993695;28;20507;-78
2022/06/03 05:24:54;;;;;;;5.25;4.38;;;11.80;99.90;;;;;;5001919;28;20492;-78
2022/06/03 05:28:05;;;;;;;4.15;3.55;;;11.80;99.90;;;;;;5001415;28;20050;-79
2022/06/03 05:31:15;;;;;;;3.33;3.03;;;12.00;99.90;;;;;;5000983;28;20129;-78
2022/06/03 05:34:03;;;;;;;4.20;3.53;;;11.90;99.90;;;;;;4992966;28;20702;-79
2022/06/03 05:36:48;;;;;;;4.47;3.80;;;11.90;99.90;;;;;;4984439;28;20034;-79
2022/06/03 05:39:45;;;;;;;6.22;4.78;;;12.00;99.90;;;;;;4991611;28;20045;-79
2022/06/03 05:42:36;;;;;;;4.50;4.07;;;12.00;99.90;;;;;;5000929;28;20116;-79
2022/06/03 05:45:31;;;;;;;5.35;4.88;;;12.00;99.90;;;;;;5000694;28;20038;-78
2022/06/03 05:48:14;;;;;;;4.50;3.83;;;12.10;99.90;;;;;;4997247;28;20045;-86
2022/06/03 05:51:01;;;;;;;5.22;4.50;;;12.10;99.90;;;;;;5000864;28;20507;-86
2022/06/03 05:53:56;;;;;;;4.47;4.03;;;12.10;99.90;;;;;;5001386;28;20050;-85
2022/06/03 05:56:31;;;;;;;3.72;3.08;;;12.20;99.90;;;;;;4981298;28;20494;-81
2022/06/03 05:59:35;;;;;;;4.35;3.35;;;12.30;99.90;;;;;;5001384;28;20133;-83
2022/06/03 06:02:00;;;;;;;3.78;3.47;;;12.30;99.90;;;;;;5002748;28;20050;-80
2022/06/03 06:04:35;;;;;;;4.63;3.80;;;12.30;99.90;;;;;;5002140;28;20046;-83
2022/06/03 06:07:33;;;;;;;5.43;3.55;;;12.40;99.90;;;;;;5004290;28;20049;-81
2022/06/03 06:10:16;;;;;;;5.13;3.85;;;12.40;99.90;;;;;;5003383;28;20451;-86
2022/06/03 06:12:46;;;;;;;8.07;3.45;;;12.50;99.90;;;;;;5004917;28;20049;-84
2022/06/03 06:15:49;;;;;;;4.82;3.10;;;12.50;99.90;;;;;;5005120;28;20396;-85
2022/06/03 06:18:15;;;;;;;;;;;12.50;99.90;;;;;;5004572;28;20045;-80
2022/06/03 06:21:06;;;;;;;4.03;2.92;;;12.60;99.90;;;;;;5004941;28;20122;-87
2022/06/03 06:23:44;;;;;;;4.30;2.80;;;12.60;99.90;;;;;;5003183;28;20065;-84
2022/06/03 06:26:31;;;;;;;4.22;2.28;;;12.70;99.90;;;;;;5003413;28;20071;-86
2022/06/03 06:28:56;;;;;;;4.28;1.92;;;12.70;99.90;;;;;;5005017;28;20587;-85
2022/06/03 06:31:39;;;;;;;3.78;3.15;;;12.70;99.90;;;;;;5004413;28;20172;-85
2022/06/03 06:34:40;;;;;;;2.30;1.73;;;12.80;99.90;;;;;;5002473;28;20496;-87
2022/06/03 06:37:23;;;;;;;3.22;1.90;;;12.80;99.90;;;;;;4995994;28;20054;-83
2022/06/03 06:40:05;;;;;;;1.83;1.73;;;12.90;99.90;;;;;;4984767;28;20050;-89
2022/06/03 06:42:38;;;;;;;2.20;2.00;;;13.00;99.90;;;;;;5000497;28;20045;-85
2022/06/03 06:45:03;;;;;;;2.28;1.88;;;13.00;99.90;;;;;;5003159;28;20038;-90
2022/06/03 06:47:35;;;;;;;2.35;1.95;;;13.10;99.90;;;;;;5003667;28;20156;-91
2022/06/03 06:50:25;;;;;;;5.05;2.83;;;13.10;99.90;;;;;;5003247;28;20439;-87
2022/06/03 06:53:05;;;;;;;2.05;1.95;;;13.10;99.90;;;;;;5001633;28;20183;-83
2022/06/03 06:55:49;;;;;;;2.17;1.80;;;13.20;99.90;;;;;;5003986;28;20061;-88
2022/06/03 06:58:33;;;;;;;7.50;2.28;;;13.20;99.90;;;;;;5003787;28;20124;-91
2022/06/03 07:01:03;;;;;;;1.98;1.67;;;13.30;99.90;;;;;;5003885;28;20034;-85
2022/06/03 07:03:28;;;;;;;3.03;2.30;;;13.30;99.90;;;;;;5003159;28;20129;-87
2022/06/03 07:06:01;;;;;;;1.98;1.85;;;13.40;99.90;;;;;;5005680;28;20132;-81
2022/06/03 07:08:42;;;;;;;1.35;1.27;;;13.40;99.90;;;;;;5006200;28;20448;-85
2022/06/03 07:11:25;;;;;;;1.93;1.50;;;13.50;99.90;;;;;;5009740;28;20057;-81
2022/06/03 07:14:06;;;;;;;3.42;1.80;;;13.50;99.90;;;;;;5021580;28;20533;-82
2022/06/03 07:20:02;;;;;;;1.83;1.60;;;13.60;99.90;;;;;;4986559;28;20053;-82
2022/06/03 07:22:35;;;;;;;1.95;1.58;;;13.70;99.90;;;;;;5002949;28;20147;-82
2022/06/03 07:25:23;;;;;;;1.73;1.63;;;13.70;99.90;;;;;;5003286;28;20041;-82
2022/06/03 07:28:25;;;;;;;1.35;1.30;;;13.80;99.90;;;;;;5008917;28;20064;-82
2022/06/03 07:31:02;;;;;;;2.03;1.85;;;13.90;99.90;;;;;;4991236;28;20089;-81
2022/06/03 07:33:31;;;;;;;1.48;1.25;;;13.90;99.90;;;;;;5002799;28;20614;-88
2022/06/03 07:36:48;;;;;;;1.27;1.17;;;13.90;99.90;;;;;;5004164;28;20041;-84
2022/06/03 07:39:32;;;;;;;1.13;1.02;;;14.00;99.90;;;;;;4986365;28;20046;-82
2022/06/03 07:42:07;;;;;;;3.50;1.50;;;14.00;99.90;;;;;;4985152;28;20127;-83
2022/06/03 07:45:06;;;;;;;1.13;1.10;;;14.10;99.90;;;;;;4999902;28;20545;-84
2022/06/03 07:47:33;;;;;;;1.30;1.20;;;14.20;99.90;;;;;;4974189;28;20061;-81
2022/06/03 07:50:02;;;;;;;2.22;1.15;;;14.20;99.90;;;;;;5003447;28;20038;-80
2022/06/03 07:52:47;;;;;;;4.43;1.48;;;14.20;99.90;;;;;;5002446;28;20045;-80
2022/06/03 07:55:20;;;;;;;1.38;1.27;;;14.30;99.90;;;;;;5003285;28;20046;-80
2022/06/03 07:57:51;;;;;;;1.55;1.40;;;14.40;99.90;;;;;;5003478;28;20050;-80
2022/06/03 08:00:19;;;;;;;1.70;1.43;;;14.40;99.90;;;;;;5003333;28;20034;-82
2022/06/03 08:02:46;;;;;;;2.10;1.45;;;14.40;99.90;;;;;;5000465;28;20049;-84
2022/06/03 08:05:18;;;;;;;1.35;0.88;;;14.50;99.90;;;;;;5003090;28;20053;-84
2022/06/03 08:10:58;;;;;;;2.63;1.58;;;14.60;99.90;;;;;;5001908;28;20088;-83
2022/06/03 08:13:47;;;;;;;0.93;0.90;;;14.60;99.90;;;;;;4996528;28;20038;-83
2022/06/03 08:16:30;;;;;;;1.13;1.13;;;14.70;99.90;;;;;;4982385;28;20042;-84
2022/06/03 08:19:00;;;;;;;3.72;1.27;;;14.70;99.90;;;;;;4986120;28;20484;-84
2022/06/03 08:21:31;;;;;;;1.60;1.17;;;14.80;99.90;;;;;;5001244;28;20045;-83
2022/06/03 08:23:58;;;;;;;1.98;1.48;;;14.80;99.90;;;;;;5001992;28;20045;-83
2022/06/03 08:26:26;;;;;;;3.83;1.23;;;14.80;99.90;;;;;;5002437;28;20069;-83
2022/06/03 08:29:07;;;;;;;1.70;1.35;;;14.80;99.90;;;;;;5002718;28;20116;-83
2022/06/03 08:31:34;;;;;;;3.97;1.35;;;14.90;99.90;;;;;;5002936;28;20045;-83
2022/06/03 08:34:02;;;;;;;1.05;0.95;;;14.90;99.90;;;;;;5002288;28;20050;-83
2022/06/03 08:36:34;;;;;;;1.08;1.08;;;15.00;99.90;;;;;;5002787;28;20662;-83
2022/06/03 08:39:18;;;;;;;1.77;1.67;;;15.00;99.90;;;;;;5002842;28;20061;-82
2022/06/03 08:41:54;;;;;;;1.08;1.08;;;15.10;99.90;;;;;;5001678;28;20070;-83
2022/06/03 08:44:39;;;;;;;1.52;1.27;;;15.10;99.90;;;;;;4992252;28;20645;-83
2022/06/03 08:47:12;;;;;;;1.05;0.90;;;15.10;99.90;;;;;;4992443;28;20046;-84
2022/06/03 08:49:57;;;;;;;1.20;1.02;;;15.20;99.90;;;;;;4990109;28;20035;-84
2022/06/03 08:52:32;;;;;;;2.03;1.83;;;15.20;99.90;;;;;;4991792;28;20050;-85
2022/06/03 08:55:05;;;;;;;1.30;1.15;;;15.30;99.90;;;;;;4981763;28;20117;-85
2022/06/03 08:57:42;;;;;;;1.17;1.08;;;15.30;99.90;;;;;;4981632;28;20050;-79
2022/06/03 09:00:18;;;;;;;1.10;1.10;;;15.30;99.90;;;;;;4982120;28;20438;-85
2022/06/03 09:02:59;;;;;;;0.70;0.70;;;15.40;99.90;;;;;;4993658;28;20038;-87
2022/06/03 09:05:44;;;;;;;1.98;1.35;;;15.40;99.90;;;;;;5000483;28;20057;-85
2022/06/03 09:08:26;;;;;;;1.23;1.20;;;15.50;99.90;;;;;;4992664;28;20552;-83
2022/06/03 09:11:02;;;;;;;1.17;1.07;;;15.50;99.90;;;;;;4995671;28;20053;-84
2022/06/03 09:14:03;;;;;;;3.10;1.10;;;15.50;99.90;;;;;;5001124;28;20304;-84
2022/06/03 09:16:30;;;;;;;1.13;1.02;;;15.50;99.90;;;;;;5001298;28;20626;-84
2022/06/03 09:19:05;;;;;;;1.90;1.15;;;15.60;99.90;;;;;;5001088;28;20125;-84
2022/06/03 09:21:35;;;;;;;1.48;1.38;;;15.70;99.90;;;;;;5000130;28;20046;-86
2022/06/03 09:24:09;;;;;;;1.67;1.40;;;15.70;99.90;;;;;;5001441;28;20034;-85
2022/06/03 09:26:54;;;;;;;1.27;1.15;;;15.70;99.90;;;;;;4999052;28;20044;-84
2022/06/03 09:29:21;;;;;;;0.90;0.90;;;15.80;99.90;;;;;;4981546;28;20544;-85
2022/06/03 09:31:59;;;;;;;1.45;1.35;;;15.80;99.90;;;;;;5001052;28;20074;-86
2022/06/03 09:34:54;;;;;;;1.27;1.17;;;15.80;99.90;;;;;;4998610;28;20756;-85
2022/06/03 09:37:33;;;;;;;0.95;0.77;;;15.80;99.90;;;;;;5000302;28;20050;-85
2022/06/03 09:40:01;;;;;;;6.90;1.05;;;15.90;99.90;;;;;;4991192;28;20675;-85
2022/06/03 09:42:29;;;;;;;0.90;0.90;;;16.00;99.90;;;;;;5003103;28;20038;-84
2022/06/03 09:44:56;;;;;;;1.65;1.27;;;15.90;99.90;;;;;;5002245;28;20042;-84
2022/06/03 09:47:23;;;;;;;0.73;0.73;;;16.00;99.90;;;;;;5002258;28;20049;-83
2022/06/03 09:49:51;;;;;;;1.67;0.95;;;16.10;99.90;;;;;;5016304;28;20054;-83
2022/06/03 09:52:22;;;;;;;1.70;1.33;;;16.10;99.90;;;;;;5001937;28;20046;-84
2022/06/03 09:54:48;;;;;;;1.23;1.13;;;16.20;99.90;;;;;;5001839;28;20125;-83
2022/06/03 09:57:33;;;;;;;1.70;1.50;;;16.20;99.90;;;;;;5000325;28;20460;-83
2022/06/03 10:00:21;;;;;;;1.85;1.25;;;16.20;99.90;;;;;;4997337;28;20042;-83
2022/06/03 10:02:47;;;;;;;3.08;1.40;;;16.20;99.90;;;;;;5000963;28;20042;-82
2022/06/03 10:05:17;;;;;;;0.65;0.65;;;16.30;99.90;;;;;;5000842;28;20090;-83
2022/06/03 10:07:47;;;;;;;2.13;1.33;;;16.30;99.90;;;;;;5002325;28;20050;-85
2022/06/03 10:13:02;;;;;;;1.92;1.60;;;16.40;99.90;;;;;;5000326;28;20549;-83
2022/06/03 10:15:42;;;;;;;2.03;1.83;;;16.40;99.90;;;;;;5000429;28;20038;-83
2022/06/03 10:18:28;;;;;;;1.20;1.10;;;16.40;99.90;;;;;;4996676;28;20121;-84
2022/06/03 10:21:06;;;;;;;1.58;1.48;;;16.40;99.90;;;;;;4997355;28;20127;-83
2022/06/03 10:23:46;;;;;;;1.08;1.08;;;16.50;99.90;;;;;;4997990;28;20038;-84
2022/06/03 10:26:26;;;;;;;4.25;1.10;;;16.50;99.90;;;;;;4996942;28;20033;-85
2022/06/03 10:28:55;;;;;;;1.65;1.55;;;16.50;99.90;;;;;;4997004;28;20566;-83
2022/06/03 10:31:32;;;;;;;1.33;1.23;;;16.60;99.90;;;;;;4993539;28;20773;-82
2022/06/03 10:34:03;;;;;;;1.35;1.25;;;16.60;99.90;;;;;;5001213;28;20578;-81
2022/06/03 10:36:40;;;;;;;1.55;1.40;;;16.60;99.90;;;;;;5000732;28;20576;-81
2022/06/03 10:39:09;;;;;;;1.60;1.30;;;16.70;99.90;;;;;;5001399;28;20096;-82
2022/06/03 10:41:43;;;;;;;3.25;1.73;;;16.70;99.90;;;;;;5001831;28;20049;-82
2022/06/03 10:44:12;;;;;;;2.63;1.83;;;16.80;99.90;;;;;;5001373;28;20046;-82
2022/06/03 10:46:38;;;;;;;2.65;1.58;;;16.80;99.90;;;;;;5001146;28;20030;-82
2022/06/03 10:49:11;;;;;;;2.55;1.75;;;16.90;99.90;;;;;;5003092;28;20038;-82
2022/06/03 11:02:48;;;;;;;2.63;2.47;;;17.10;99.90;;;;;;4992147;28;20261;-86
2022/06/03 11:05:23;;;;;;;1.80;1.67;;;17.10;99.90;;;;;;4985496;28;20118;-86
2022/06/03 11:08:07;;;;;;;1.25;1.10;;;17.10;99.90;;;;;;4985730;28;20105;-86
2022/06/03 11:10:39;;;;;;;1.30;1.20;;;17.10;99.90;;;;;;4996451;28;20104;-86
2022/06/03 11:13:07;;;;;;;1.65;1.50;;;17.20;99.90;;;;;;5004890;28;20129;-86
2022/06/03 11:15:42;;;;;;;2.35;2.05;;;17.20;99.90;;;;;;5005265;28;20042;-86
2022/06/03 11:18:18;;;;;;;0.68;0.68;;;17.30;99.90;;;;;;5004071;28;20050;-86
2022/06/03 11:20:48;;;;;;;1.25;1.05;;;17.30;99.90;;;;;;5005144;28;20076;-86
2022/06/03 11:23:15;;;;;;;3.28;1.33;;;17.30;99.90;;;;;;5004673;28;20042;-86
2022/06/03 11:25:52;;;;;;;1.85;1.42;;;17.40;99.90;;;;;;5003376;28;20073;-86
2022/06/03 11:28:31;;;;;;;1.67;1.30;;;17.50;99.90;;;;;;4990954;28;20455;-91
2022/06/03 11:31:21;;;;;;;1.48;1.38;;;17.50;99.90;;;;;;4995479;28;20277;-87
2022/06/03 11:33:56;;;;;;;1.50;1.27;;;17.50;99.90;;;;;;4993048;28;20045;-86
2022/06/03 11:36:32;;;;;;;1.85;1.30;;;17.50;99.90;;;;;;4995016;28;20060;-87
2022/06/03 11:39:03;;;;;;;1.58;1.10;;;17.50;99.90;;;;;;4990028;28;20045;-87
2022/06/03 11:41:34;;;;;;;7.65;1.73;;;17.50;99.90;;;;;;5003218;28;20038;-86
2022/06/03 11:44:09;;;;;;;2.83;1.67;;;17.50;99.90;;;;;;5004846;28;20441;-88
2022/06/03 11:46:43;;;;;;;3.70;2.00;;;17.60;99.90;;;;;;5002493;28;20104;-88
2022/06/03 11:49:09;;;;;;;1.27;1.17;;;17.60;99.90;;;;;;5002822;28;20440;-88
2022/06/03 11:51:36;;;;;;;1.33;1.02;;;17.60;99.90;;;;;;4998389;28;20034;-86
2022/06/03 11:54:12;;;;;;;1.75;1.60;;;17.70;99.90;;;;;;4998071;28;20935;-86
2022/06/03 11:56:38;;;;;;;2.72;2.22;;;17.70;99.90;;;;;;5003911;28;20044;-88
2022/06/03 11:59:15;;;;;;;1.40;1.30;;;17.70;99.90;;;;;;5003393;28;20493;-84
2022/06/03 12:02:15;;;;;;;1.52;1.42;;;17.70;99.90;;;;;;4996852;28;20060;-84
2022/06/03 12:04:47;;;;;;;4.93;1.63;;;17.80;99.90;;;;;;4970884;28;20072;-87
2022/06/03 12:07:24;;;;;;;2.13;1.75;;;17.80;99.90;;;;;;5002848;28;20042;-88
2022/06/03 12:09:52;;;;;;;9.18;1.90;;;17.80;99.90;;;;;;5002076;28;20056;-87
2022/06/03 12:15:31;;;;;;;2.67;1.73;;;17.80;99.90;;;;;;4999202;28;20077;-87
2022/06/03 12:18:14;;;;;;;1.77;1.13;;;17.80;99.90;;;;;;4988804;28;20133;-86
2022/06/03 12:20:47;;;;;;;1.42;1.40;;;17.70;99.90;;;;;;4984184;28;20034;-84
2022/06/03 12:23:12;;;;;;;1.55;1.40;;;17.80;99.90;;;;;;4990701;28;20043;-85
2022/06/03 12:26:26;;;;;;;1.40;1.30;;;17.80;99.90;;;;;;4988734;28;20038;-86
2022/06/03 12:28:57;;;;;;;3.33;1.23;;;17.80;99.90;;;;;;4994872;28;20041;-86
2022/06/03 12:31:22;;;;;;;1.13;1.03;;;17.80;99.90;;;;;;4986314;28;20053;-85
2022/06/03 12:34:11;;;;;;;1.65;1.30;;;17.90;99.90;;;;;;4983598;28;20413;-86
2022/06/03 12:36:51;;;;;;;2.90;1.27;;;17.90;99.90;;;;;;4996743;28;20096;-85
2022/06/03 12:39:32;;;;;;;3.05;1.73;;;17.90;99.90;;;;;;4995250;28;20054;-85
2022/06/03 12:42:12;;;;;;;1.40;1.30;;;17.90;99.90;;;;;;4983912;28;20065;-86
2022/06/03 12:44:46;;;;;;;1.10;1.10;;;17.90;99.90;;;;;;4983150;28;20080;-87
2022/06/03 12:47:18;;;;;;;2.20;1.55;;;18.00;99.90;;;;;;4990099;28;20128;-87
2022/06/03 12:49:43;;;;;;;1.85;1.58;;;18.00;99.90;;;;;;5002326;28;20042;-87
2022/06/03 12:52:31;;;;;;;1.73;1.52;;;18.10;99.90;;;;;;5000606;28;20145;-87
2022/06/03 12:55:09;;;;;;;3.35;1.30;;;18.10;99.90;;;;;;4991988;28;20058;-88
2022/06/03 12:57:48;;;;;;;1.35;1.17;;;18.10;99.90;;;;;;4983088;28;20046;-87
2022/06/03 13:00:17;;;;;;;2.65;1.58;;;18.10;99.90;;;;;;4983516;28;20038;-88
2022/06/03 13:03:04;;;;;;;1.95;1.00;;;18.10;99.90;;;;;;4982199;28;20116;-87
2022/06/03 13:05:54;;;;;;;3.40;0.98;;;18.10;99.90;;;;;;4997521;28;20440;-87
2022/06/03 13:08:28;;;;;;;2.10;1.42;;;18.10;99.90;;;;;;4986707;28;20134;-86
2022/06/03 13:11:30;;;;;;;1.60;1.33;;;18.10;99.90;;;;;;4992748;28;20057;-88
2022/06/03 13:13:56;;;;;;;1.42;1.33;;;18.00;99.90;;;;;;4971002;28;20046;-87
2022/06/03 13:16:37;;;;;;;1.30;1.15;;;18.10;99.90;;;;;;4981659;28;20618;-87
2022/06/03 13:19:18;;;;;;;1.48;1.38;;;18.10;99.90;;;;;;4980774;28;20133;-88
2022/06/03 13:22:07;;;;;;;1.23;0.95;;;18.10;99.90;;;;;;4982850;28;20117;-87
2022/06/03 13:24:34;;;;;;;0.70;0.68;;;18.10;99.90;;;;;;4981727;28;20057;-87
2022/06/03 13:27:33;;;;;;;3.63;1.55;;;18.10;99.90;;;;;;4983151;28;20050;-87
2022/06/03 13:30:10;;;;;;;1.02;0.77;;;18.10;99.90;;;;;;4939685;28;20058;-87
2022/06/03 13:32:36;;;;;;;0.90;0.88;;;18.10;99.90;;;;;;4980909;28;20455;-87
2022/06/03 13:35:38;;;;;;;0.98;0.98;;;18.10;99.90;;;;;;4989424;28;20137;-88
2022/06/03 13:38:25;;;;;;;1.20;1.10;;;18.10;99.90;;;;;;4999490;28;20049;-88
2022/06/03 13:44:09;;;;;;;3.40;1.13;;;18.10;99.90;;;;;;5001797;28;20136;-88
2022/06/03 13:46:36;;;;;;;1.17;1.00;;;18.10;99.90;;;;;;5002298;28;20064;-86
2022/06/03 13:49:11;;;;;;;0.75;0.55;;;18.20;99.90;;;;;;5000127;28;20053;-88
2022/06/03 13:51:49;;;;;;;0.80;0.80;;;18.20;99.90;;;;;;5002392;28;20488;-86
2022/06/03 13:54:23;;;;;;;2.28;0.70;;;18.20;99.90;;;;;;5000113;28;20104;-84
2022/06/03 13:57:13;;;;;;;0.77;0.73;;;18.20;99.90;;;;;;4983567;28;20058;-85
2022/06/03 13:59:42;;;;;;;4.18;0.70;;;18.20;99.90;;;;;;4999874;28;20508;-86
2022/06/03 14:02:29;;;;;;;1.15;0.75;;;18.30;99.90;;;;;;4999572;28;20049;-86
2022/06/03 14:04:59;;;;;;;1.10;1.00;;;18.20;99.90;;;;;;4985835;28;20107;-84
2022/06/03 14:07:47;;;;;;;0.95;0.90;;;18.20;99.90;;;;;;4999169;28;20046;-88
2022/06/03 14:10:21;;;;;;;2.17;1.55;;;18.20;99.90;;;;;;4998504;28;20045;-89
2022/06/03 14:13:01;;;;;;;0.77;0.65;;;18.30;99.90;;;;;;4999221;28;20101;-86
2022/06/03 14:15:40;;;;;;;3.00;0.60;;;18.30;99.90;;;;;;5000233;28;20419;-87
2022/06/03 14:18:07;;;;;;;1.10;0.75;;;18.30;99.90;;;;;;4999558;28;20045;-86
2022/06/03 14:20:47;;;;;;;1.48;1.38;;;18.30;99.90;;;;;;5000062;28;20621;-85
2022/06/03 14:23:29;;;;;;;0.80;0.80;;;18.30;99.90;;;;;;5003618;28;20069;-87
2022/06/03 14:26:01;;;;;;;1.27;0.88;;;18.30;99.90;;;;;;5002952;28;20393;-87
2022/06/03 14:28:49;;;;;;;0.70;0.68;;;18.30;99.90;;;;;;5005848;28;20038;-86
2022/06/03 14:31:33;;;;;;;0.88;0.88;;;18.30;99.90;;;;;;5003882;28;20519;-86
2022/06/03 14:34:26;;;;;;;0.90;0.52;;;18.30;99.90;;;;;;4999122;28;20152;-86
2022/06/03 14:36:55;;;;;;;0.52;0.40;;;18.30;99.90;;;;;;4969761;28;20054;-86